Time;durP1;ratioP1;P1;durP2;ratioP2;P2;SDS_P1;SDS_P2;PMS_P1;PMS_P2;Temp;Humidity;BMP_temperature;BMP_pressure;BME280_temperature;BME280_humidity;BME280_pressure;Samples;Min_cycle;Max_cycle;Signal;HPM_P1;HPM_P2
2023/10/15 00:00:05;;;;;;;;;;;;;;;;;;5047675;28;19937;-77
2023/10/15 00:02:31;;;;;;;;;;;;;;;;;;5023681;28;20698;-77
2023/10/15 00:05:01;;;;;;;;;;;;;;;;;;5032003;28;19925;-75
2023/10/15 00:07:28;;;;;;;;;;;;;;;;;;5027825;28;19925;-77
2023/10/15 00:09:54;;;;;;;;;;;;;;;;;;5028264;28;19924;-77
2023/10/15 00:12:21;;;;;;;;;;;;;;;;;;5029551;28;19925;-76
2023/10/15 00:14:47;;;;;;;;;;;;;;;;;;5021836;28;19925;-76
2023/10/15 00:17:14;;;;;;;;;;;;;;;;;;5044599;28;19925;-78
2023/10/15 00:19:41;;;;;;;;;;;;;;;;;;5021813;28;20425;-76
2023/10/15 00:22:07;;;;;;;;;;;;;;;;;;5027684;28;19929;-76
2023/10/15 00:24:34;;;;;;;;;;;;;;;;;;5030426;28;19982;-78
2023/10/15 00:27:00;;;;;;;;;;;;;;;;;;5031349;28;19924;-77
2023/10/15 00:29:27;;;;;;;;;;;;;;;;;;5005226;28;20379;-78
2023/10/15 00:31:54;;;;;;;;;;;;;;;;;;5032360;28;19927;-77
2023/10/15 00:34:22;;;;;;;;;;;;;;;;;;5031721;28;19932;-78
2023/10/15 00:36:48;;;;;;;;;;;;;;;;;;5032899;28;19921;-78
2023/10/15 00:39:21;;;;;;;;;;;;;;;;;;5031491;28;19974;-78
2023/10/15 00:41:48;;;;;;;;;;;;;;;;;;5043559;28;19921;-76
2023/10/15 00:44:15;;;;;;;;;;;;;;;;;;5035383;28;19921;-77
2023/10/15 00:46:42;;;;;;;;;;;;;;;;;;5024931;28;19921;-78
2023/10/15 00:49:13;;;;;;;;;;;;;;;;;;5031721;28;20380;-78
2023/10/15 00:51:41;;;;;;;;;;;;;;;;;;5033277;28;21248;-78
2023/10/15 00:54:11;;;;;;;;;;;;;;;;;;5026725;28;19921;-78
2023/10/15 00:56:39;;;;;;;;;;;;;;;;;;4998841;28;19921;-77
2023/10/15 00:59:08;;;;;;;;;;;;;;;;;;5016077;28;19916;-76
2023/10/15 01:01:38;;;;;;;;;;;;;;;;;;5031900;28;19913;-75
2023/10/15 01:04:07;;;;;;;;;;;;;;;;;;5049445;28;19971;-77
2023/10/15 01:06:38;;;;;;;;;;;;;;;;;;5047248;28;19928;-77
2023/10/15 01:09:11;;;;;;;;;;;;;;;;;;5044380;28;19920;-77
2023/10/15 01:11:37;;;;;;;;;;;;;;;;;;5047337;28;20071;-77
2023/10/15 01:14:10;;;;;;;;;;;;;;;;;;5023934;28;19988;-77
2023/10/15 01:16:37;;;;;;;;;;;;;;;;;;5030299;28;19944;-76
2023/10/15 01:21:43;;;;;;;;;;;;;;;;;;5025168;28;21604;-77
2023/10/15 01:24:09;;;;;;;;;;;;;;;;;;5027615;28;21602;-78
2023/10/15 01:26:39;;;;;;;;;;;;;;;;;;5029093;28;19928;-77
2023/10/15 01:29:08;;;;;;;;;;;;;;;;;;5029376;28;19933;-77
2023/10/15 01:31:40;;;;;;;;;;;;;;;;;;5029525;28;19928;-77
2023/10/15 01:34:09;;;;;;;;;;;;;;;;;;5030933;28;20295;-78
2023/10/15 01:36:39;;;;;;;;;;;;;;;;;;5029746;28;19928;-76
2023/10/15 01:39:10;;;;;;;;;;;;;;;;;;5030356;28;19925;-76
2023/10/15 01:41:39;;;;;;;;;;;;;;;;;;5025921;28;19921;-77
2023/10/15 01:44:07;;;;;;;;;;;;;;;;;;5027849;28;19936;-77
2023/10/15 01:46:45;;;;;;;;;;;;;;;;;;5030345;28;19928;-77
2023/10/15 01:49:19;;;;;;;;;;;;;;;;;;5022022;28;20056;-78
2023/10/15 01:51:45;;;;;;;;;;;;;;;;;;5010990;28;19992;-78
2023/10/15 01:54:12;;;;;;;;;;;;;;;;;;5014797;28;19944;-77
2023/10/15 01:56:38;;;;;;;;;;;;;;;;;;5016054;28;19928;-77
2023/10/15 01:59:08;;;;;;;;;;;;;;;;;;5005755;28;19926;-78
2023/10/15 02:01:40;;;;;;;;;;;;;;;;;;4997688;28;19925;-78
2023/10/15 02:06:51;;;;;;;;;;;;;;;;;;5003841;28;20526;-78
2023/10/15 02:09:24;;;;;;;;;;;;;;;;;;5016025;28;19978;-76
2023/10/15 02:11:54;;;;;;;;;;;;;;;;;;5028957;28;20107;-77
2023/10/15 02:14:27;;;;;;;;;;;;;;;;;;5013608;28;19921;-78
2023/10/15 02:16:54;;;;;;;;;;;;;;;;;;5033262;28;19928;-77
2023/10/15 02:19:34;;;;;;;;;;;;;;;;;;5034369;28;20017;-78
2023/10/15 02:22:01;;;;;;;;;;;;;;;;;;5043004;28;19928;-77
2023/10/15 02:24:34;;;;;;;;;;;;;;;;;;5040630;28;19958;-75
2023/10/15 02:27:05;;;;;;;;;;;;;;;;;;5032554;28;20299;-77
2023/10/15 02:34:50;;;;;;;;;;;;;;;;;;5038195;28;19925;-77
2023/10/15 02:37:17;;;;;;;;;;;;;;;;;;5033387;28;19929;-77
2023/10/15 02:39:45;;;;;;;;;;;;;;;;;;5024900;28;19927;-76
2023/10/15 02:42:11;;;;;;;;;;;;;;;;;;5032066;28;19921;-78
2023/10/15 02:44:38;;;;;;;;;;;;;;;;;;5028067;28;19929;-78
2023/10/15 02:47:20;;;;;;;;;;;;;;;;;;5022462;28;19928;-78
2023/10/15 02:49:53;;;;;;;;;;;;;;;;;;5028800;28;20391;-76
2023/10/15 02:52:20;;;;;;;;;;;;;;;;;;5025871;28;19971;-77
2023/10/15 02:54:47;;;;;;;;;;;;;;;;;;5033706;28;19921;-77
2023/10/15 02:57:16;;;;;;;;;;;;;;;;;;5015278;28;20612;-77
2023/10/15 02:59:50;;;;;;;;;;;;;;;;;;5036146;28;20007;-77
2023/10/15 03:02:17;;;;;;;;;;;;;;;;;;5032898;28;19928;-76
2023/10/15 03:04:49;;;;;;;;;;;;;;;;;;5025010;28;19966;-78
2023/10/15 03:07:19;;;;;;;;;;;;;;;;;;5032470;28;19929;-77
2023/10/15 03:09:48;;;;;;;;;;;;;;;;;;5030764;28;20383;-78
2023/10/15 03:12:16;;;;;;;;;;;;;;;;;;5030281;28;19928;-77
2023/10/15 03:14:42;;;;;;;;;;;;;;;;;;5032343;28;19921;-77
2023/10/15 03:17:24;;;;;;;;;;;;;;;;;;5017163;28;19927;-76
2023/10/15 03:20:06;;;;;;;;;;;;;;;;;;5031126;28;20372;-77
2023/10/15 03:22:38;;;;;;;;;;;;;;;;;;5043983;28;20575;-77
2023/10/15 03:25:06;;;;;;;;;;;;;;;;;;5035553;28;19927;-77
2023/10/15 03:27:32;;;;;;;;;;;;;;;;;;5033130;28;20293;-77
2023/10/15 03:29:59;;;;;;;;;;;;;;;;;;5029704;28;20436;-77
2023/10/15 03:32:37;;;;;;;;;;;;;;;;;;5024843;28;20591;-77
2023/10/15 03:35:16;;;;;;;;;;;;;;;;;;5028159;28;20598;-77
2023/10/15 03:37:46;;;;;;;;;;;;;;;;;;5029730;28;20544;-77
2023/10/15 03:43:06;;;;;;;;;;;;;;;;;;5028916;28;20937;-77
2023/10/15 03:45:33;;;;;;;;;;;;;;;;;;5026599;28;19924;-77
2023/10/15 03:48:00;;;;;;;;;;;;;;;;;;5032638;28;19921;-77
2023/10/15 03:50:29;;;;;;;;;;;;;;;;;;5031036;28;19921;-77
2023/10/15 03:52:56;;;;;;;;;;;;;;;;;;5027878;28;19921;-77
2023/10/15 03:55:23;;;;;;;;;;;;;;;;;;5024519;28;19986;-77
2023/10/15 03:57:52;;;;;;;;;;;;;;;;;;5029760;28;19921;-77
2023/10/15 04:03:22;;;;;;;;;;;;;;;;;;5026114;28;20124;-77
2023/10/15 04:05:48;;;;;;;;;;;;;;;;;;5028570;28;19952;-78
2023/10/15 04:08:18;;;;;;;;;;;;;;;;;;5035314;28;19950;-77
2023/10/15 04:10:45;;;;;;;;;;;;;;;;;;5023418;28;19928;-76
2023/10/15 04:13:11;;;;;;;;;;;;;;;;;;5031442;28;19921;-78
2023/10/15 04:15:38;;;;;;;;;;;;;;;;;;5029642;28;19921;-77
2023/10/15 04:18:04;;;;;;;;;;;;;;;;;;5034750;28;19920;-77
2023/10/15 04:20:35;;;;;;;;;;;;;;;;;;5018284;28;20721;-77
2023/10/15 04:23:02;;;;;;;;;;;;;;;;;;5009507;28;19925;-78
2023/10/15 04:25:32;;;;;;;;;;;;;;;;;;5044376;28;20395;-78
2023/10/15 04:28:12;;;;;;;;;;;;;;;;;;5018887;28;19933;-77
2023/10/15 04:30:38;;;;;;;;;;;;;;;;;;5014944;28;20637;-77
2023/10/15 04:33:13;;;;;;;;;;;;;;;;;;5017050;28;20395;-78
2023/10/15 04:35:43;;;;;;;;;;;;;;;;;;5009479;28;20607;-77
2023/10/15 04:38:09;;;;;;;;;;;;;;;;;;5009224;28;19921;-78
2023/10/15 04:43:56;;;;;;;;;;;;;;;;;;4989504;28;20830;-77
2023/10/15 04:46:26;;;;;;;;;;;;;;;;;;5013001;28;21172;-77
2023/10/15 04:48:54;;;;;;;;;;;;;;;;;;5031650;28;19921;-76
2023/10/15 04:51:28;;;;;;;;;;;;;;;;;;5031236;28;19976;-76
2023/10/15 04:53:56;;;;;;;;;;;;;;;;;;5035143;28;19988;-77
2023/10/15 04:56:22;;;;;;;;;;;;;;;;;;5034039;28;20068;-77
2023/10/15 04:58:49;;;;;;;;;;;;;;;;;;5048046;28;19956;-77
2023/10/15 05:01:16;;;;;;;;;;;;;;;;;;5042414;28;19921;-77
2023/10/15 05:03:45;;;;;;;;;;;;;;;;;;5053604;28;19927;-78
2023/10/15 05:06:12;;;;;;;;;;;;;;;;;;5041652;28;19928;-78
2023/10/15 05:08:40;;;;;;;;;;;;;;;;;;5041277;28;20011;-78
2023/10/15 05:11:07;;;;;;;;;;;;;;;;;;5035922;28;19920;-77
2023/10/15 05:13:33;;;;;;;;;;;;;;;;;;5034660;28;20345;-78
2023/10/15 05:16:00;;;;;;;;;;;;;;;;;;5034856;28;19947;-78
2023/10/15 05:18:29;;;;;;;;;;;;;;;;;;5016310;28;20083;-78
2023/10/15 05:20:56;;;;;;;;;;;;;;;;;;5029190;28;19925;-76
2023/10/15 05:23:22;;;;;;;;;;;;;;;;;;5040637;28;19924;-78
2023/10/15 05:25:49;;;;;;;;;;;;;;;;;;5044935;28;19982;-78
2023/10/15 05:28:16;;;;;;;;;;;;;;;;;;5016482;28;19931;-78
2023/10/15 05:30:43;;;;;;;;;;;;;;;;;;5036800;28;19929;-77
2023/10/15 05:33:09;;;;;;;;;;;;;;;;;;5018729;28;20526;-77
2023/10/15 05:35:40;;;;;;;;;;;;;;;;;;5021341;28;19932;-78
2023/10/15 05:38:09;;;;;;;;;;;;;;;;;;5010880;28;19979;-77
2023/10/15 05:40:36;;;;;;;;;;;;;;;;;;5019220;28;19925;-76
2023/10/15 05:43:04;;;;;;;;;;;;;;;;;;5039632;28;19924;-77
2023/10/15 05:45:31;;;;;;;;;;;;;;;;;;5021028;28;19931;-77
2023/10/15 05:47:57;;;;;;;;;;;;;;;;;;5027284;28;20028;-77
2023/10/15 05:50:24;;;;;;;;;;;;;;;;;;5012461;28;20291;-76
2023/10/15 05:52:51;;;;;;;;;;;;;;;;;;5013800;28;20009;-77
2023/10/15 05:55:20;;;;;;;;;;;;;;;;;;5013242;28;19925;-76
2023/10/15 05:57:47;;;;;;;;;;;;;;;;;;5014155;28;20041;-76
2023/10/15 06:00:19;;;;;;;;;;;;;;;;;;5018052;28;19984;-77
2023/10/15 06:02:50;;;;;;;;;;;;;;;;;;5013625;28;21491;-75
2023/10/15 06:05:17;;;;;;;;;;;;;;;;;;4997442;28;19925;-77
2023/10/15 06:07:43;;;;;;;;;;;;;;;;;;5015348;28;20695;-78
2023/10/15 06:10:11;;;;;;;;;;;;;;;;;;5015241;28;19932;-77
2023/10/15 06:12:40;;;;;;;;;;;;;;;;;;5015002;28;19933;-77
2023/10/15 06:15:15;;;;;;;;;;;;;;;;;;5017093;28;20610;-77
2023/10/15 06:17:46;;;;;;;;;;;;;;;;;;5017865;28;20716;-78
2023/10/15 06:20:13;;;;;;;;;;;;;;;;;;5010836;28;20018;-76
2023/10/15 06:22:40;;;;;;;;;;;;;;;;;;5018713;28;20991;-77
2023/10/15 06:25:08;;;;;;;;;;;;;;;;;;5003895;28;19932;-76
2023/10/15 06:27:35;;;;;;;;;;;;;;;;;;5001425;28;19951;-77
2023/10/15 06:30:08;;;;;;;;;;;;;;;;;;5011665;28;19932;-77
2023/10/15 06:32:34;;;;;;;;;;;;;;;;;;5027381;28;19925;-76
2023/10/15 06:35:01;;;;;;;;;;;;;;;;;;5029292;28;19925;-77
2023/10/15 06:37:27;;;;;;;;;;;;;;;;;;5024253;28;19929;-76
2023/10/15 06:39:54;;;;;;;;;;;;;;;;;;5028515;28;19933;-77
2023/10/15 06:42:30;;;;;;;;;;;;;;;;;;5028922;28;19924;-76
2023/10/15 06:44:57;;;;;;;;;;;;;;;;;;5028756;28;19924;-77
2023/10/15 06:47:23;;;;;;;;;;;;;;;;;;5024909;28;19924;-77
2023/10/15 06:49:53;;;;;;;;;;;;;;;;;;5026288;28;19934;-76
2023/10/15 06:52:20;;;;;;;;;;;;;;;;;;5030293;28;20615;-72
2023/10/15 06:54:47;;;;;;;;;;;;;;;;;;5015288;28;19924;-77
2023/10/15 06:57:16;;;;;;;;;;;;;;;;;;5006460;28;19931;-77
2023/10/15 06:59:42;;;;;;;;;;;;;;;;;;5017778;28;20292;-77
2023/10/15 07:02:09;;;;;;;;;;;;;;;;;;5020488;28;19956;-77
2023/10/15 07:04:35;;;;;;;;;;;;;;;;;;5029863;28;19925;-77
2023/10/15 07:07:03;;;;;;;;;;;;;;;;;;5026805;28;19925;-77
2023/10/15 07:09:29;;;;;;;;;;;;;;;;;;5024938;28;20826;-77
2023/10/15 07:11:56;;;;;;;;;;;;;;;;;;5015687;28;20383;-77
2023/10/15 07:14:22;;;;;;;;;;;;;;;;;;5018296;28;19951;-77
2023/10/15 07:16:50;;;;;;;;;;;;;;;;;;5000595;28;20170;-75
2023/10/15 07:19:17;;;;;;;;;;;;;;;;;;5021696;28;20007;-77
2023/10/15 07:21:45;;;;;;;;;;;;;;;;;;5024422;28;19925;-76
2023/10/15 07:24:12;;;;;;;;;;;;;;;;;;5024282;28;19925;-77
2023/10/15 07:26:41;;;;;;;;;;;;;;;;;;5028887;28;19944;-77
2023/10/15 07:29:08;;;;;;;;;;;;;;;;;;5007443;28;19978;-79
2023/10/15 07:31:34;;;;;;;;;;;;;;;;;;5020956;28;19929;-76
2023/10/15 07:34:01;;;;;;;;;;;;;;;;;;5000756;28;19929;-77
2023/10/15 07:36:28;;;;;;;;;;;;;;;;;;5001432;28;19925;-78
2023/10/15 07:38:54;;;;;;;;;;;;;;;;;;5006304;28;19922;-77
2023/10/15 07:41:21;;;;;;;;;;;;;;;;;;5007926;28;19926;-76
2023/10/15 07:43:47;;;;;;;;;;;;;;;;;;5002494;28;19930;-74
2023/10/15 07:46:14;;;;;;;;;;;;;;;;;;5006961;28;19925;-74
2023/10/15 07:48:43;;;;;;;;;;;;;;;;;;5006993;28;19925;-75
2023/10/15 07:51:10;;;;;;;;;;;;;;;;;;5014494;28;20183;-77
2023/10/15 07:53:36;;;;;;;;;;;;;;;;;;5018680;28;20571;-75
2023/10/15 07:56:03;;;;;;;;;;;;;;;;;;4989503;28;19932;-77
2023/10/15 07:58:29;;;;;;;;;;;;;;;;;;5017125;28;19980;-76
2023/10/15 08:00:56;;;;;;;;;;;;;;;;;;5009433;28;19978;-77
2023/10/15 08:03:36;;;;;;;;;;;;;;;;;;5002457;28;19979;-76
2023/10/15 08:06:03;;;;;;;;;;;;;;;;;;5029178;28;19974;-73
2023/10/15 08:08:30;;;;;;;;;;;;;;;;;;5003424;28;20642;-75
2023/10/15 08:10:57;;;;;;;;;;;;;;;;;;5009673;28;19931;-73
2023/10/15 08:13:24;;;;;;;;;;;;;;;;;;5002210;28;19925;-75
2023/10/15 08:15:51;;;;;;;;;;;;;;;;;;5002038;28;19929;-76
2023/10/15 08:18:20;;;;;;;;;;;;;;;;;;4985897;28;20039;-76
2023/10/15 08:20:47;;;;;;;;;;;;;;;;;;4998420;28;19925;-76
2023/10/15 08:23:13;;;;;;;;;;;;;;;;;;5005664;28;19925;-75
2023/10/15 08:25:40;;;;;;;;;;;;;;;;;;5003203;28;19925;-76
2023/10/15 08:28:07;;;;;;;;;;;;;;;;;;5026156;28;19926;-76
2023/10/15 08:30:34;;;;;;;;;;;;;;;;;;5003578;28;19955;-74
2023/10/15 08:33:01;;;;;;;;;;;;;;;;;;5027967;28;19925;-76
2023/10/15 08:35:28;;;;;;;;;;;;;;;;;;5029147;28;19925;-76
2023/10/15 08:37:54;;;;;;;;;;;;;;;;;;5011566;28;19925;-76
2023/10/15 08:40:21;;;;;;;;;;;;;;;;;;4989890;28;19925;-76
2023/10/15 08:42:48;;;;;;;;;;;;;;;;;;4996245;28;19945;-75
2023/10/15 08:45:15;;;;;;;;;;;;;;;;;;5006292;28;19960;-75
2023/10/15 08:47:43;;;;;;;;;;;;;;;;;;5007806;28;19955;-74
2023/10/15 08:50:10;;;;;;;;;;;;;;;;;;5008901;28;19925;-74
2023/10/15 08:52:37;;;;;;;;;;;;;;;;;;5017824;28;20418;-76
2023/10/15 08:55:06;;;;;;;;;;;;;;;;;;5004290;28;19925;-76
2023/10/15 08:57:34;;;;;;;;;;;;;;;;;;5027376;28;20850;-74
2023/10/15 09:00:01;;;;;;;;;;;;;;;;;;5026786;28;20367;-76
2023/10/15 09:02:28;;;;;;;;;;;;;;;;;;5027468;28;19925;-73
2023/10/15 09:04:55;;;;;;;;;;;;;;;;;;5032191;28;19932;-75
2023/10/15 09:07:22;;;;;;;;;;;;;;;;;;5028829;28;19924;-76
2023/10/15 09:09:52;;;;;;;;;;;;;;;;;;5034040;28;19925;-76
2023/10/15 09:12:18;;;;;;;;;;;;;;;;;;5027764;28;19976;-76
2023/10/15 09:14:45;;;;;;;;;;;;;;;;;;5030808;28;19964;-74
2023/10/15 09:17:11;;;;;;;;;;;;;;;;;;5020509;28;19925;-75
2023/10/15 09:19:38;;;;;;;;;;;;;;;;;;5025153;28;19925;-76
2023/10/15 09:22:05;;;;;;;;;;;;;;;;;;5030783;28;20131;-75
2023/10/15 09:24:31;;;;;;;;;;;;;;;;;;5031572;28;19925;-75
2023/10/15 09:26:58;;;;;;;;;;;;;;;;;;5034913;28;19929;-75
2023/10/15 09:29:26;;;;;;;;;;;;;;;;;;5018502;28;19925;-75
2023/10/15 09:31:56;;;;;;;;;;;;;;;;;;5025087;28;20021;-75
2023/10/15 09:34:23;;;;;;;;;;;;;;;;;;5020842;28;19925;-77
2023/10/15 09:36:51;;;;;;;;;;;;;;;;;;5022855;28;19929;-74
2023/10/15 09:39:18;;;;;;;;;;;;;;;;;;5037402;28;19928;-78
2023/10/15 09:41:44;;;;;;;;;;;;;;;;;;5029167;28;19970;-84
2023/10/15 09:44:17;;;;;;;;;;;;;;;;;;5030540;28;20398;-82
2023/10/15 09:46:43;;;;;;;;;;;;;;;;;;5036998;28;19936;-82
2023/10/15 09:49:10;;;;;;;;;;;;;;;;;;5034566;28;19929;-83
2023/10/15 09:51:36;;;;;;;;;;;;;;;;;;5045401;28;20435;-85
2023/10/15 09:54:03;;;;;;;;;;;;;;;;;;5043099;28;19971;-82
2023/10/15 09:56:31;;;;;;;;;;;;;;;;;;5016948;28;19921;-85
2023/10/15 09:59:02;;;;;;;;;;;;;;;;;;5011224;28;19987;-83
2023/10/15 10:01:30;;;;;;;;;;;;;;;;;;5013906;28;19939;-84
2023/10/15 10:04:03;;;;;;;;;;;;;;;;;;5036041;28;19932;-84
2023/10/15 10:06:32;;;;;;;;;;;;;;;;;;5021240;28;20467;-84
2023/10/15 10:08:58;;;;;;;;;;;;;;;;;;5014824;28;20000;-84
2023/10/15 10:11:25;;;;;;;;;;;;;;;;;;5010073;28;19925;-85
2023/10/15 10:13:52;;;;;;;;;;;;;;;;;;5006748;28;20004;-85
2023/10/15 10:16:19;;;;;;;;;;;;;;;;;;5037993;28;20024;-84
2023/10/15 10:18:45;;;;;;;;;;;;;;;;;;4999624;28;19933;-84
2023/10/15 10:21:27;;;;;;;;;;;;;;;;;;5010887;28;19937;-81
2023/10/15 10:23:54;;;;;;;;;;;;;;;;;;5040556;28;19947;-82
2023/10/15 10:26:24;;;;;;;;;;;;;;;;;;5005484;28;20019;-79
2023/10/15 10:29:01;;;;;;;;;;;;;;;;;;5034236;28;19954;-85
2023/10/15 10:31:30;;;;;;;;;;;;;;;;;;5034534;28;20422;-83
2023/10/15 10:33:57;;;;;;;;;;;;;;;;;;5028050;28;20585;-82
2023/10/15 10:36:27;;;;;;;;;;;;;;;;;;5016091;28;19929;-80
2023/10/15 10:38:53;;;;;;;;;;;;;;;;;;5029592;28;19971;-83
2023/10/15 10:41:20;;;;;;;;;;;;;;;;;;5025732;28;20084;-81
2023/10/15 10:43:51;;;;;;;;;;;;;;;;;;5027771;28;19925;-81
2023/10/15 10:46:27;;;;;;;;;;;;;;;;;;5029727;28;19932;-83
2023/10/15 10:48:53;;;;;;;;;;;;;;;;;;5033624;28;19931;-79
2023/10/15 10:51:21;;;;;;;;;;;;;;;;;;5039129;28;20663;-83
2023/10/15 10:53:48;;;;;;;;;;;;;;;;;;5022400;28;19972;-82
2023/10/15 10:56:16;;;;;;;;;;;;;;;;;;5033980;28;19979;-82
2023/10/15 10:58:43;;;;;;;;;;;;;;;;;;5012038;28;20582;-81
2023/10/15 11:01:10;;;;;;;;;;;;;;;;;;5007459;28;20387;-81
2023/10/15 11:03:37;;;;;;;;;;;;;;;;;;5026717;28;20478;-81
2023/10/15 11:06:07;;;;;;;;;;;;;;;;;;5027723;28;19924;-82
2023/10/15 11:08:33;;;;;;;;;;;;;;;;;;5034803;28;19931;-81
2023/10/15 11:11:00;;;;;;;;;;;;;;;;;;5027887;28;19936;-80
2023/10/15 11:13:26;;;;;;;;;;;;;;;;;;5026756;28;19986;-80
2023/10/15 11:15:53;;;;;;;;;;;;;;;;;;5019516;28;20011;-81
2023/10/15 11:18:20;;;;;;;;;;;;;;;;;;5050639;28;19936;-80
2023/10/15 11:20:47;;;;;;;;;;;;;;;;;;5029695;28;19931;-80
2023/10/15 11:23:15;;;;;;;;;;;;;;;;;;5015038;28;20012;-80
2023/10/15 11:25:41;;;;;;;;;;;;;;;;;;5022273;28;20386;-78
2023/10/15 11:28:10;;;;;;;;;;;;;;;;;;5014028;28;19926;-80
2023/10/15 11:30:37;;;;;;;;;;;;;;;;;;5008851;28;20378;-79
2023/10/15 11:33:07;;;;;;;;;;;;;;;;;;5009980;28;19925;-82
2023/10/15 11:35:33;;;;;;;;;;;;;;;;;;5025484;28;19925;-80
2023/10/15 11:38:00;;;;;;;;;;;;;;;;;;5025846;28;19935;-80
2023/10/15 11:40:26;;;;;;;;;;;;;;;;;;5025515;28;19925;-82
2023/10/15 11:42:54;;;;;;;;;;;;;;;;;;5036345;28;19974;-81
2023/10/15 11:45:30;;;;;;;;;;;;;;;;;;5027366;28;20002;-74
2023/10/15 11:47:56;;;;;;;;;;;;;;;;;;5028591;28;19947;-75
2023/10/15 11:50:23;;;;;;;;;;;;;;;;;;5037766;28;20387;-74
2023/10/15 11:52:50;;;;;;;;;;;;;;;;;;5033237;28;19925;-74
2023/10/15 11:55:19;;;;;;;;;;;;;;;;;;5033376;28;19924;-74
2023/10/15 11:57:53;;;;;;;;;;;;;;;;;;5031951;28;19984;-74
2023/10/15 12:00:31;;;;;;;;;;;;;;;;;;5035801;28;20018;-74
2023/10/15 12:02:59;;;;;;;;;;;;;;;;;;5017665;28;21828;-74
2023/10/15 12:05:31;;;;;;;;;;;;;;;;;;5013800;28;19932;-74
2023/10/15 12:07:57;;;;;;;;;;;;;;;;;;5017708;28;20023;-75
2023/10/15 12:10:24;;;;;;;;;;;;;;;;;;5015785;28;20314;-75
2023/10/15 12:12:51;;;;;;;;;;;;;;;;;;5016153;28;19925;-75
2023/10/15 12:15:18;;;;;;;;;;;;;;;;;;5009976;28;19925;-75
2023/10/15 12:17:44;;;;;;;;;;;;;;;;;;5012234;28;20383;-75
2023/10/15 12:20:13;;;;;;;;;;;;;;;;;;5009700;28;19956;-76
2023/10/15 12:22:45;;;;;;;;;;;;;;;;;;5018474;28;20006;-75
2023/10/15 12:25:12;;;;;;;;;;;;;;;;;;5016115;28;19925;-76
2023/10/15 12:27:39;;;;;;;;;;;;;;;;;;5007254;28;20395;-73
2023/10/15 12:30:07;;;;;;;;;;;;;;;;;;5007796;28;19932;-76
2023/10/15 12:32:33;;;;;;;;;;;;;;;;;;5007630;28;20627;-76
2023/10/15 12:35:11;;;;;;;;;;;;;;;;;;5007743;28;19932;-75
2023/10/15 12:37:38;;;;;;;;;;;;;;;;;;5008249;28;19932;-75
2023/10/15 12:40:12;;;;;;;;;;;;;;;;;;5001373;28;19932;-74
2023/10/15 12:42:39;;;;;;;;;;;;;;;;;;5026440;28;19931;-75
2023/10/15 12:45:09;;;;;;;;;;;;;;;;;;5024631;28;19974;-74
2023/10/15 12:47:36;;;;;;;;;;;;;;;;;;5025703;28;19928;-76
2023/10/15 12:50:07;;;;;;;;;;;;;;;;;;5024023;28;19925;-76
2023/10/15 12:52:35;;;;;;;;;;;;;;;;;;5028272;28;20102;-77
2023/10/15 12:55:01;;;;;;;;;;;;;;;;;;5028014;28;20349;-76
2023/10/15 12:57:28;;;;;;;;;;;;;;;;;;5024109;28;19924;-75
2023/10/15 12:59:55;;;;;;;;;;;;;;;;;;5041010;28;19932;-75
2023/10/15 13:02:22;;;;;;;;;;;;;;;;;;5031295;28;20458;-75
2023/10/15 13:04:49;;;;;;;;;;;;;;;;;;5031452;28;19925;-74
2023/10/15 13:07:16;;;;;;;;;;;;;;;;;;5030779;28;19938;-76
2023/10/15 13:09:44;;;;;;;;;;;;;;;;;;5029905;28;19948;-71
2023/10/15 13:12:11;;;;;;;;;;;;;;;;;;5030274;28;19928;-72
2023/10/15 13:14:38;;;;;;;;;;;;;;;;;;5026434;28;19931;-73
2023/10/15 13:17:04;;;;;;;;;;;;;;;;;;5022340;28;19932;-76
2023/10/15 13:19:31;;;;;;;;;;;;;;;;;;5026597;28;19933;-77
2023/10/15 13:22:04;;;;;;;;;;;;;;;;;;5024077;28;20386;-77
2023/10/15 13:24:32;;;;;;;;;;;;;;;;;;5018058;28;20533;-76
2023/10/15 13:26:58;;;;;;;;;;;;;;;;;;5028302;28;20838;-76
2023/10/15 13:29:25;;;;;;;;;;;;;;;;;;5022788;28;19925;-76
2023/10/15 13:31:52;;;;;;;;;;;;;;;;;;5022423;28;20448;-76
2023/10/15 13:34:18;;;;;;;;;;;;;;;;;;5032158;28;19929;-76
2023/10/15 13:36:45;;;;;;;;;;;;;;;;;;5023851;28;20357;-75
2023/10/15 13:39:18;;;;;;;;;;;;;;;;;;5024483;28;19960;-77
2023/10/15 13:41:45;;;;;;;;;;;;;;;;;;5024781;28;20023;-73
2023/10/15 13:44:11;;;;;;;;;;;;;;;;;;5028726;28;20449;-74
2023/10/15 13:46:43;;;;;;;;;;;;;;;;;;5032656;28;20556;-76
2023/10/15 13:49:10;;;;;;;;;;;;;;;;;;5030061;28;19925;-73
2023/10/15 13:51:39;;;;;;;;;;;;;;;;;;5034429;28;19930;-75
2023/10/15 13:54:06;;;;;;;;;;;;;;;;;;5029431;28;19933;-74
2023/10/15 13:56:33;;;;;;;;;;;;;;;;;;5026023;28;20450;-76
2023/10/15 13:58:59;;;;;;;;;;;;;;;;;;5020609;28;20401;-77
2023/10/15 14:01:26;;;;;;;;;;;;;;;;;;5018676;28;19979;-75
2023/10/15 14:03:54;;;;;;;;;;;;;;;;;;5038332;28;20034;-77
2023/10/15 14:06:21;;;;;;;;;;;;;;;;;;5025843;28;19929;-77
2023/10/15 14:08:50;;;;;;;;;;;;;;;;;;5025843;28;19924;-77
2023/10/15 14:11:16;;;;;;;;;;;;;;;;;;5023411;28;20000;-77
2023/10/15 14:13:44;;;;;;;;;;;;;;;;;;5024381;28;19931;-74
2023/10/15 14:16:11;;;;;;;;;;;;;;;;;;5028096;28;19933;-77
2023/10/15 14:18:38;;;;;;;;;;;;;;;;;;5027108;28;19925;-76
2023/10/15 14:21:06;;;;;;;;;;;;;;;;;;5024413;28;19954;-76
2023/10/15 14:23:33;;;;;;;;;;;;;;;;;;5025134;28;20745;-76
2023/10/15 14:25:59;;;;;;;;;;;;;;;;;;5022595;28;19925;-76
2023/10/15 14:28:26;;;;;;;;;;;;;;;;;;5046159;28;20171;-77
2023/10/15 14:30:52;;;;;;;;;;;;;;;;;;5041538;28;19925;-76
2023/10/15 14:33:19;;;;;;;;;;;;;;;;;;5023947;28;20006;-76
2023/10/15 14:35:45;;;;;;;;;;;;;;;;;;5017976;28;19925;-76
2023/10/15 14:38:12;;;;;;;;;;;;;;;;;;5024535;28;19924;-74
2023/10/15 14:40:39;;;;;;;;;;;;;;;;;;5025619;28;19929;-75
2023/10/15 14:43:07;;;;;;;;;;;;;;;;;;5044504;28;21711;-75
2023/10/15 14:45:33;;;;;;;;;;;;;;;;;;5030987;28;19970;-75
2023/10/15 14:48:00;;;;;;;;;;;;;;;;;;5031689;28;19960;-76
2023/10/15 14:50:27;;;;;;;;;;;;;;;;;;5025868;28;19931;-74
2023/10/15 14:52:53;;;;;;;;;;;;;;;;;;5030675;28;19990;-75
2023/10/15 14:55:20;;;;;;;;;;;;;;;;;;5036453;28;19931;-75
2023/10/15 14:57:46;;;;;;;;;;;;;;;;;;5017313;28;20004;-75
2023/10/15 15:00:16;;;;;;;;;;;;;;;;;;5044490;28;19932;-75
2023/10/15 15:02:43;;;;;;;;;;;;;;;;;;5026065;28;19932;-75
2023/10/15 15:05:10;;;;;;;;;;;;;;;;;;5034869;28;19978;-75
2023/10/15 15:07:36;;;;;;;;;;;;;;;;;;5029330;28;20456;-75
2023/10/15 15:10:03;;;;;;;;;;;;;;;;;;5032085;28;19928;-75
2023/10/15 15:12:30;;;;;;;;;;;;;;;;;;5028903;28;19935;-74
2023/10/15 15:14:58;;;;;;;;;;;;;;;;;;5025292;28;19925;-75
2023/10/15 15:17:24;;;;;;;;;;;;;;;;;;5025269;28;19925;-76
2023/10/15 15:19:51;;;;;;;;;;;;;;;;;;5034134;28;19979;-74
2023/10/15 15:22:18;;;;;;;;;;;;;;;;;;5030275;28;19924;-74
2023/10/15 15:24:45;;;;;;;;;;;;;;;;;;5025614;28;19939;-75
2023/10/15 15:27:11;;;;;;;;;;;;;;;;;;5022304;28;22291;-76
2023/10/15 15:29:38;;;;;;;;;;;;;;;;;;5024255;28;19929;-75
2023/10/15 15:32:04;;;;;;;;;;;;;;;;;;5021213;28;19980;-69
2023/10/15 15:34:31;;;;;;;;;;;;;;;;;;5022830;28;19959;-75
2023/10/15 15:36:58;;;;;;;;;;;;;;;;;;5023701;28;19932;-76
2023/10/15 15:39:25;;;;;;;;;;;;;;;;;;5025760;28;20395;-75
2023/10/15 15:41:51;;;;;;;;;;;;;;;;;;5023339;28;19936;-75
2023/10/15 15:44:21;;;;;;;;;;;;;;;;;;5038008;28;19947;-74
2023/10/15 15:46:48;;;;;;;;;;;;;;;;;;5034869;28;20336;-76
2023/10/15 15:49:15;;;;;;;;;;;;;;;;;;5038269;28;19924;-76
2023/10/15 15:51:41;;;;;;;;;;;;;;;;;;5034920;28;19954;-76
2023/10/15 15:54:08;;;;;;;;;;;;;;;;;;5048596;28;20470;-76
2023/10/15 15:56:34;;;;;;;;;;;;;;;;;;4996560;28;19956;-74
2023/10/15 15:59:02;;;;;;;;;;;;;;;;;;5018438;28;21012;-75
2023/10/15 16:01:29;;;;;;;;;;;;;;;;;;5016040;28;19979;-76
2023/10/15 16:04:10;;;;;;;;;;;;;;;;;;5046698;28;19924;-75
2023/10/15 16:06:36;;;;;;;;;;;;;;;;;;5015437;28;19925;-74
2023/10/15 16:09:03;;;;;;;;;;;;;;;;;;5022935;28;19972;-76
2023/10/15 16:11:30;;;;;;;;;;;;;;;;;;5041609;28;19926;-74
2023/10/15 16:13:57;;;;;;;;;;;;;;;;;;5016400;28;19929;-76
2023/10/15 16:16:24;;;;;;;;;;;;;;;;;;5015579;28;20021;-76
2023/10/15 16:18:51;;;;;;;;;;;;;;;;;;5018082;28;19929;-73
2023/10/15 16:21:18;;;;;;;;;;;;;;;;;;5007126;28;20525;-76
2023/10/15 16:23:44;;;;;;;;;;;;;;;;;;5008278;28;19924;-77
2023/10/15 16:26:11;;;;;;;;;;;;;;;;;;5006234;28;20426;-76
2023/10/15 16:28:37;;;;;;;;;;;;;;;;;;5007623;28;19936;-76
2023/10/15 16:31:04;;;;;;;;;;;;;;;;;;4993788;28;19925;-77
2023/10/15 16:33:31;;;;;;;;;;;;;;;;;;5020311;28;20040;-74
2023/10/15 16:35:57;;;;;;;;;;;;;;;;;;5002342;28;20567;-75
2023/10/15 16:38:24;;;;;;;;;;;;;;;;;;5028351;28;19924;-74
2023/10/15 16:40:51;;;;;;;;;;;;;;;;;;5022896;28;20447;-75
2023/10/15 16:43:17;;;;;;;;;;;;;;;;;;5034273;28;20054;-74
2023/10/15 16:45:44;;;;;;;;;;;;;;;;;;5021714;28;19971;-74
2023/10/15 16:48:11;;;;;;;;;;;;;;;;;;5033284;28;19924;-74
2023/10/15 16:50:43;;;;;;;;;;;;;;;;;;5029144;28;19929;-75
2023/10/15 16:53:10;;;;;;;;;;;;;;;;;;5008617;28;19925;-75
2023/10/15 16:55:40;;;;;;;;;;;;;;;;;;5007150;28;19929;-75
2023/10/15 16:58:07;;;;;;;;;;;;;;;;;;5024821;28;19967;-75
2023/10/15 17:00:33;;;;;;;;;;;;;;;;;;5024646;28;19929;-74
2023/10/15 17:03:00;;;;;;;;;;;;;;;;;;5025504;28;19971;-75
2023/10/15 17:05:28;;;;;;;;;;;;;;;;;;5020424;28;19931;-75
2023/10/15 17:07:54;;;;;;;;;;;;;;;;;;5028457;28;19943;-74
2023/10/15 17:10:21;;;;;;;;;;;;;;;;;;5010452;28;19929;-74